Time;durP1;ratioP1;P1;durP2;ratioP2;P2;SDS_P1;SDS_P2;PMS_P1;PMS_P2;Temp;Humidity;BMP_temperature;BMP_pressure;BME280_temperature;BME280_humidity;BME280_pressure;Samples;Min_cycle;Max_cycle;Signal;HPM_P1;HPM_P2
2023/06/09 00:00:36;;;;;;;11.27;6.93;;;21.50;98.10;;;;;;5091038;28;20043;-73
2023/06/09 00:03:40;;;;;;;10.10;6.35;;;21.50;98.00;;;;;;5091446;28;20047;-73
2023/06/09 00:06:44;;;;;;;15.18;7.38;;;21.40;97.90;;;;;;5095227;28;20043;-73
2023/06/09 00:09:48;;;;;;;10.13;6.88;;;21.40;98.10;;;;;;5094868;28;20043;-73
2023/06/09 00:12:54;;;;;;;14.65;7.30;;;21.40;98.00;;;;;;5094616;28;20039;-74
2023/06/09 00:15:57;;;;;;;13.32;6.78;;;21.50;97.70;;;;;;5095038;28;20035;-74
2023/06/09 00:19:02;;;;;;;11.05;6.75;;;21.50;97.50;;;;;;5095011;28;20051;-74
2023/06/09 00:22:13;;;;;;;14.68;7.50;;;21.50;97.50;;;;;;5094691;28;20073;-74
2023/06/09 00:25:20;;;;;;;9.32;6.47;;;21.50;97.60;;;;;;5082984;28;20054;-74
2023/06/09 00:28:23;;;;;;;8.73;6.93;;;21.40;97.80;;;;;;5094833;28;20051;-74
2023/06/09 00:31:27;;;;;;;13.68;7.50;;;21.50;97.60;;;;;;5081617;28;20062;-74
2023/06/09 00:34:31;;;;;;;14.50;6.97;;;21.40;97.60;;;;;;5082001;28;20063;-73
2023/06/09 00:37:35;;;;;;;16.30;7.78;;;21.40;98.10;;;;;;5081675;28;20047;-74
2023/06/09 00:40:39;;;;;;;12.18;7.63;;;21.40;97.90;;;;;;5094533;28;20043;-74
2023/06/09 00:43:50;;;;;;;14.57;8.00;;;21.50;97.90;;;;;;5094120;28;20043;-74
2023/06/09 00:46:54;;;;;;;12.02;7.43;;;21.30;97.80;;;;;;5094438;28;20047;-74
2023/06/09 00:49:58;;;;;;;13.13;7.38;;;21.30;98.40;;;;;;5081406;28;20055;-73
2023/06/09 00:53:03;;;;;;;11.18;7.32;;;21.40;98.20;;;;;;5081646;28;20047;-74
2023/06/09 00:56:07;;;;;;;13.15;7.53;;;21.40;98.10;;;;;;5081344;28;20047;-73
2023/06/09 00:59:14;;;;;;;11.73;7.50;;;21.40;97.90;;;;;;5081559;28;20071;-73
2023/06/09 01:02:19;;;;;;;13.05;7.35;;;21.40;98.10;;;;;;5093880;28;20130;-74
2023/06/09 01:05:23;;;;;;;8.07;6.78;;;21.40;97.90;;;;;;5094027;28;20522;-74
2023/06/09 01:08:40;;;;;;;14.63;6.95;;;21.40;98.00;;;;;;5093581;28;20403;-74
2023/06/09 01:11:55;;;;;;;12.07;7.05;;;21.30;98.10;;;;;;5094011;28;20055;-74
2023/06/09 01:15:06;;;;;;;13.23;6.38;;;21.30;98.10;;;;;;5081152;28;20420;-74
2023/06/09 01:18:14;;;;;;;10.27;6.80;;;21.20;98.10;;;;;;5093956;28;20050;-74
2023/06/09 01:21:40;;;;;;;13.23;6.88;;;21.20;98.20;;;;;;5093600;28;20059;-74
2023/06/09 01:25:04;;;;;;;9.13;6.40;;;21.10;98.50;;;;;;5081130;28;20199;-74
2023/06/09 01:28:16;;;;;;;12.63;6.65;;;21.10;98.30;;;;;;5092404;28;20051;-75
2023/06/09 01:31:21;;;;;;;15.60;6.78;;;21.00;98.50;;;;;;5080606;28;20059;-74
2023/06/09 01:34:25;;;;;;;15.05;6.78;;;21.10;98.50;;;;;;5093433;28;20051;-75
2023/06/09 01:37:30;;;;;;;12.77;6.25;;;21.00;98.70;;;;;;5093270;28;20051;-74
2023/06/09 01:40:35;;;;;;;11.23;6.53;;;21.00;98.50;;;;;;5093191;28;20043;-74
2023/06/09 01:43:39;;;;;;;9.18;6.00;;;21.00;98.50;;;;;;5080624;28;20047;-74
2023/06/09 01:46:44;;;;;;;10.57;5.95;;;20.90;98.50;;;;;;5080915;28;20031;-74
2023/06/09 01:50:01;;;;;;;8.10;5.97;;;20.70;98.50;;;;;;5092984;28;20043;-74
2023/06/09 01:53:09;;;;;;;11.60;6.47;;;20.70;98.90;;;;;;5069255;28;20050;-75
2023/06/09 01:56:25;;;;;;;10.45;6.35;;;20.70;98.80;;;;;;5092855;28;20039;-75
2023/06/09 01:59:39;;;;;;;13.80;6.65;;;20.70;98.80;;;;;;5092440;28;20070;-74
2023/06/09 02:02:46;;;;;;;10.63;6.32;;;20.70;98.60;;;;;;5092931;28;20044;-74
2023/06/09 02:05:53;;;;;;;12.82;7.47;;;20.60;99.00;;;;;;5093026;28;20050;-74
2023/06/09 02:08:57;;;;;;;11.32;7.28;;;20.40;99.30;;;;;;5079774;28;20055;-74
2023/06/09 02:12:01;;;;;;;14.20;7.57;;;20.40;99.80;;;;;;5092541;28;20403;-74
2023/06/09 02:15:06;;;;;;;10.88;7.22;;;20.40;99.80;;;;;;5080133;28;20051;-74
2023/06/09 02:18:12;;;;;;;11.90;6.82;;;20.40;99.90;;;;;;5092618;28;20039;-75
2023/06/09 02:21:16;;;;;;;10.32;7.35;;;20.50;99.70;;;;;;5079671;28;20499;-74
2023/06/09 02:24:20;;;;;;;10.80;7.07;;;20.50;99.60;;;;;;5080018;28;20051;-75
2023/06/09 02:27:24;;;;;;;12.77;6.97;;;20.40;99.90;;;;;;5079457;28;20051;-74
2023/06/09 02:30:28;;;;;;;11.30;7.38;;;20.50;99.80;;;;;;5079620;28;20055;-75
2023/06/09 02:33:32;;;;;;;12.68;7.15;;;20.60;99.70;;;;;;5091991;28;20043;-75
2023/06/09 02:36:37;;;;;;;10.90;7.55;;;20.50;99.80;;;;;;5079733;28;20038;-75
2023/06/09 02:39:42;;;;;;;9.52;7.47;;;20.70;99.70;;;;;;5079670;28;20043;-75
2023/06/09 02:42:46;;;;;;;13.20;8.00;;;20.70;99.80;;;;;;5079788;28;20047;-75
2023/06/09 02:45:51;;;;;;;10.25;7.55;;;20.70;99.80;;;;;;5079712;28;20043;-75
2023/06/09 02:48:56;;;;;;;14.32;7.85;;;20.60;99.70;;;;;;5079382;28;20043;-74
2023/06/09 02:52:00;;;;;;;12.32;8.38;;;20.50;99.70;;;;;;5091944;28;20062;-74
2023/06/09 02:55:08;;;;;;;15.60;8.38;;;20.40;99.90;;;;;;5079439;28;20102;-74
2023/06/09 02:58:16;;;;;;;14.77;7.57;;;20.40;99.90;;;;;;5079382;28;20043;-75
2023/06/09 03:01:23;;;;;;;10.93;8.20;;;20.30;99.90;;;;;;5078856;28;20043;-74
2023/06/09 03:04:29;;;;;;;14.30;8.02;;;20.30;99.90;;;;;;5079217;28;20046;-75
2023/06/09 03:07:34;;;;;;;13.75;8.10;;;20.30;99.90;;;;;;5079527;28;20051;-74
2023/06/09 03:10:39;;;;;;;12.00;8.27;;;20.40;99.90;;;;;;5078861;28;20067;-74
2023/06/09 03:13:44;;;;;;;10.65;8.20;;;20.40;99.90;;;;;;5079145;28;20494;-74
2023/06/09 03:16:48;;;;;;;12.00;8.43;;;20.50;99.90;;;;;;5078877;28;20054;-73
2023/06/09 03:19:52;;;;;;;12.20;7.95;;;20.50;99.90;;;;;;5078799;28;20051;-74
2023/06/09 03:22:58;;;;;;;13.55;9.75;;;20.40;99.90;;;;;;5091695;28;20051;-75
2023/06/09 03:26:02;;;;;;;16.38;9.68;;;20.50;99.90;;;;;;5067414;28;20380;-74
2023/06/09 03:29:09;;;;;;;17.88;10.70;;;20.50;99.90;;;;;;5079022;28;20039;-75
2023/06/09 03:32:14;;;;;;;22.58;11.50;;;20.40;99.90;;;;;;5078814;28;20242;-74
2023/06/09 03:35:19;;;;;;;17.35;11.48;;;20.30;99.90;;;;;;5091382;28;20047;-74
2023/06/09 03:38:24;;;;;;;17.90;10.95;;;20.20;99.90;;;;;;5077919;28;20499;-74
2023/06/09 03:41:28;;;;;;;18.88;10.32;;;19.80;99.90;;;;;;5090801;28;20495;-75
2023/06/09 03:44:35;;;;;;;24.70;10.30;;;19.90;99.90;;;;;;5078913;28;20046;-75
2023/06/09 03:47:39;;;;;;;13.40;8.43;;;19.80;99.90;;;;;;5066930;28;20047;-75
2023/06/09 03:50:44;;;;;;;14.65;8.30;;;19.90;99.90;;;;;;5089916;28;20047;-75
2023/06/09 03:53:49;;;;;;;14.98;7.55;;;19.90;99.90;;;;;;5090387;28;20387;-75
2023/06/09 03:56:53;;;;;;;14.65;7.97;;;20.00;99.90;;;;;;5078717;28;20050;-75
2023/06/09 03:59:57;;;;;;;12.68;7.40;;;20.00;99.90;;;;;;5090871;28;20043;-75
2023/06/09 04:03:01;;;;;;;12.20;7.93;;;20.00;99.90;;;;;;5090860;28;20043;-75
2023/06/09 04:06:06;;;;;;;15.85;7.20;;;20.10;99.90;;;;;;5078420;28;20051;-75
2023/06/09 04:09:12;;;;;;;13.30;7.93;;;20.20;99.90;;;;;;5090652;28;20169;-74
2023/06/09 04:12:16;;;;;;;14.50;7.60;;;20.40;99.90;;;;;;5090847;28;20051;-75
2023/06/09 04:15:20;;;;;;;14.32;7.07;;;20.50;99.90;;;;;;5090716;28;20043;-75
2023/06/09 04:18:28;;;;;;;14.55;7.53;;;20.50;99.90;;;;;;5078024;28;20035;-75
2023/06/09 04:21:33;;;;;;;16.65;8.27;;;20.50;99.90;;;;;;5078275;28;20039;-74
2023/06/09 04:24:37;;;;;;;10.85;8.25;;;20.40;99.90;;;;;;5066751;28;20519;-75
2023/06/09 04:27:42;;;;;;;15.63;8.32;;;20.40;99.90;;;;;;5078469;28;20039;-75
2023/06/09 04:30:49;;;;;;;16.88;8.05;;;20.50;99.90;;;;;;5077763;28;20210;-75
2023/06/09 04:33:55;;;;;;;16.60;9.20;;;20.50;99.90;;;;;;5078134;28;20500;-74
2023/06/09 04:36:59;;;;;;;17.58;9.00;;;20.70;99.90;;;;;;5078311;28;20420;-75
2023/06/09 04:40:08;;;;;;;15.73;9.30;;;21.00;99.90;;;;;;5089905;28;20499;-74
2023/06/09 04:43:13;;;;;;;16.27;9.95;;;21.40;99.40;;;;;;5078204;28;20054;-74
2023/06/09 04:46:18;;;;;;;13.73;9.82;;;21.30;99.40;;;;;;5078322;28;20051;-74
2023/06/09 04:49:23;;;;;;;14.98;9.40;;;21.40;99.20;;;;;;5090561;28;20106;-75
2023/06/09 04:52:29;;;;;;;12.73;7.82;;;21.50;99.20;;;;;;5082150;28;20384;-74
2023/06/09 04:55:35;;;;;;;16.42;8.32;;;21.60;99.00;;;;;;5081547;28;20404;-75
2023/06/09 04:58:40;;;;;;;16.40;8.80;;;21.50;98.70;;;;;;5081819;28;20359;-72
2023/06/09 05:01:46;;;;;;;16.85;9.32;;;21.40;99.20;;;;;;5092792;28;20051;-73
2023/06/09 05:04:51;;;;;;;19.67;8.80;;;21.50;99.60;;;;;;5081601;28;20314;-74
2023/06/09 05:07:55;;;;;;;43.58;9.60;;;21.70;99.40;;;;;;5093622;28;20518;-73
2023/06/09 05:11:00;;;;;;;39.65;10.57;;;22.00;99.10;;;;;;5080745;28;20055;-73
2023/06/09 05:14:05;;;;;;;19.77;9.68;;;22.30;98.70;;;;;;5093375;28;20066;-73
2023/06/09 05:17:10;;;;;;;24.52;10.65;;;22.50;98.30;;;;;;5081092;28;20051;-82
2023/06/09 05:20:14;;;;;;;32.75;11.38;;;22.60;98.30;;;;;;5094454;28;20502;-83
2023/06/09 05:23:18;;;;;;;21.00;14.35;;;23.00;98.30;;;;;;5093349;28;20043;-78
2023/06/09 05:26:22;;;;;;;21.52;13.40;;;23.10;97.50;;;;;;5081534;28;20114;-80
2023/06/09 05:29:26;;;;;;;23.45;11.57;;;23.20;97.30;;;;;;5094701;28;20047;-83
2023/06/09 05:32:30;;;;;;;20.80;9.63;;;23.20;97.90;;;;;;5084447;28;20063;-86
2023/06/09 05:35:35;;;;;;;17.88;8.93;;;23.30;97.50;;;;;;5084199;28;20051;-87
2023/06/09 05:38:39;;;;;;;50.83;11.15;;;23.70;97.90;;;;;;5072246;28;20056;-82
2023/06/09 05:41:43;;;;;;;16.80;10.32;;;24.10;97.00;;;;;;5099624;28;20043;-82
2023/06/09 05:44:47;;;;;;;19.92;8.88;;;24.20;96.10;;;;;;5094840;28;20067;-82
2023/06/09 05:47:51;;;;;;;19.48;8.82;;;24.30;96.40;;;;;;5096117;28;20039;-83
2023/06/09 05:50:56;;;;;;;21.92;9.52;;;24.50;96.50;;;;;;5096478;28;20047;-84
2023/06/09 05:54:00;;;;;;;14.32;8.63;;;24.80;96.10;;;;;;5096828;28;20051;-83
2023/06/09 05:57:05;;;;;;;15.95;9.38;;;25.00;95.90;;;;;;5098350;28;20051;-86
2023/06/09 06:00:09;;;;;;;14.13;8.77;;;25.10;95.20;;;;;;5097778;28;20034;-87
2023/06/09 06:03:20;;;;;;;26.63;9.88;;;25.20;95.80;;;;;;5083308;28;20043;-85
2023/06/09 06:06:24;;;;;;;18.58;9.60;;;25.20;95.80;;;;;;5095695;28;20117;-83
2023/06/09 06:09:28;;;;;;;13.27;7.00;;;25.50;95.30;;;;;;5093821;28;20070;-76
2023/06/09 06:12:33;;;;;;;16.05;7.50;;;25.50;95.50;;;;;;5081761;28;20055;-81
2023/06/09 06:15:37;;;;;;;22.42;8.90;;;25.70;95.20;;;;;;5095996;28;20047;-83
2023/06/09 06:18:41;;;;;;;14.88;6.50;;;25.70;94.80;;;;;;5094366;28;20043;-74
2023/06/09 06:21:45;;;;;;;17.58;8.00;;;25.90;95.20;;;;;;5094028;28;20047;-84
2023/06/09 06:24:49;;;;;;;25.88;8.60;;;26.20;94.50;;;;;;5094334;28;20043;-74
2023/06/09 06:27:53;;;;;;;22.27;8.48;;;26.30;94.60;;;;;;5092313;28;20093;-75
2023/06/09 06:30:56;;;;;;;22.17;6.07;;;26.30;94.40;;;;;;5079757;28;20051;-79
2023/06/09 06:34:00;;;;;;;16.42;6.47;;;26.70;94.50;;;;;;5092510;28;20391;-74
2023/06/09 06:37:05;;;;;;;10.73;5.15;;;27.10;93.80;;;;;;5092021;28;20038;-76
2023/06/09 06:40:10;;;;;;;9.80;3.20;;;27.20;92.90;;;;;;5091903;28;20392;-66
2023/06/09 06:43:15;;;;;;;14.70;4.15;;;26.60;92.90;;;;;;5092088;28;20645;-68
2023/06/09 06:46:36;;;;;;;26.08;4.93;;;26.40;93.80;;;;;;5079371;28;20043;-67
2023/06/09 06:49:40;;;;;;;10.95;4.70;;;26.70;93.70;;;;;;5091950;28;20051;-65
2023/06/09 06:52:45;;;;;;;9.77;3.70;;;27.10;93.40;;;;;;5092189;28;20059;-70
2023/06/09 06:55:50;;;;;;;6.72;3.30;;;27.60;92.00;;;;;;5091666;28;20039;-69
2023/06/09 06:58:54;;;;;;;15.07;4.03;;;27.70;91.60;;;;;;5091575;28;20055;-68
2023/06/09 07:01:58;;;;;;;11.18;4.18;;;27.60;91.80;;;;;;5091852;28;20039;-71
2023/06/09 07:05:03;;;;;;;9.57;3.60;;;27.50;91.90;;;;;;5092190;28;20503;-71
2023/06/09 07:08:07;;;;;;;10.45;4.13;;;27.20;91.60;;;;;;5091333;28;20134;-68
2023/06/09 07:11:11;;;;;;;9.75;4.00;;;27.10;91.70;;;;;;5091175;28;20048;-68
2023/06/09 07:14:15;;;;;;;10.32;3.65;;;27.10;91.90;;;;;;5091339;28;20051;-68
2023/06/09 07:17:19;;;;;;;8.98;3.45;;;27.50;91.40;;;;;;5091240;28;20047;-68
2023/06/09 07:20:23;;;;;;;11.43;3.75;;;27.80;91.30;;;;;;5067434;28;20043;-68
2023/06/09 07:23:27;;;;;;;7.47;3.83;;;28.30;91.00;;;;;;5091233;28;20290;-68
2023/06/09 07:26:32;;;;;;;13.55;4.68;;;27.90;90.10;;;;;;5091079;28;20147;-71
2023/06/09 07:29:36;;;;;;;14.98;4.22;;;27.70;90.80;;;;;;5090958;28;20391;-69
2023/06/09 07:32:40;;;;;;;18.25;5.38;;;27.40;90.50;;;;;;5091118;28;20514;-70
2023/06/09 07:35:44;;;;;;;11.73;4.60;;;27.10;91.00;;;;;;5091245;28;20047;-68
2023/06/09 07:38:49;;;;;;;16.08;4.80;;;26.90;91.00;;;;;;5091093;28;20047;-72
2023/06/09 07:41:53;;;;;;;15.50;4.55;;;26.60;91.10;;;;;;5067176;28;20511;-69
2023/06/09 07:44:56;;;;;;;31.85;6.25;;;26.70;91.40;;;;;;5090911;28;20059;-65
2023/06/09 07:48:00;;;;;;;13.18;4.85;;;27.10;91.10;;;;;;5090947;28;20050;-67
2023/06/09 07:51:05;;;;;;;17.70;5.22;;;27.50;90.40;;;;;;5091012;28;20050;-66
2023/06/09 07:54:09;;;;;;;7.35;3.60;;;27.90;90.10;;;;;;5091326;28;20036;-68
2023/06/09 07:57:15;;;;;;;8.57;4.07;;;28.10;89.20;;;;;;5091159;28;20051;-68
2023/06/09 08:00:20;;;;;;;9.82;4.00;;;28.40;88.40;;;;;;5077739;28;20043;-69
2023/06/09 08:03:25;;;;;;;10.65;4.10;;;28.80;88.30;;;;;;5090636;28;20047;-69
2023/06/09 08:06:29;;;;;;;11.07;4.18;;;29.10;86.30;;;;;;5090777;28;20047;-70
2023/06/09 08:09:32;;;;;;;11.30;4.78;;;29.00;85.70;;;;;;5090894;28;20047;-74
2023/06/09 08:12:38;;;;;;;10.10;4.07;;;28.90;86.00;;;;;;5090534;28;20059;-70
2023/06/09 08:15:44;;;;;;;9.15;4.28;;;28.80;86.40;;;;;;5090690;28;20043;-74
2023/06/09 08:18:48;;;;;;;9.68;4.63;;;28.60;86.50;;;;;;5078106;28;20102;-73
2023/06/09 08:21:53;;;;;;;12.32;4.45;;;28.70;86.30;;;;;;5090480;28;20388;-72
2023/06/09 08:24:57;;;;;;;7.10;3.85;;;28.50;87.00;;;;;;5091818;28;20063;-72
2023/06/09 08:28:02;;;;;;;17.20;4.60;;;28.60;87.90;;;;;;5081866;28;20039;-67
2023/06/09 08:31:08;;;;;;;16.13;4.40;;;28.70;87.30;;;;;;5094519;28;20047;-67
2023/06/09 08:34:12;;;;;;;11.20;4.57;;;28.80;86.70;;;;;;5094722;28;20062;-70
2023/06/09 08:37:16;;;;;;;21.75;5.60;;;29.00;86.10;;;;;;5094348;28;20043;-66
2023/06/09 08:40:21;;;;;;;13.18;4.35;;;28.90;86.30;;;;;;5093385;28;20089;-67
2023/06/09 08:43:26;;;;;;;7.38;4.22;;;28.70;87.60;;;;;;5093151;28;20035;-71
2023/06/09 08:46:37;;;;;;;10.75;4.68;;;28.80;87.40;;;;;;5070383;28;20055;-77
2023/06/09 08:49:41;;;;;;;13.05;4.70;;;28.70;87.40;;;;;;5081630;28;20039;-68
2023/06/09 08:52:45;;;;;;;8.13;4.75;;;28.50;86.80;;;;;;5079393;28;20043;-69
2023/06/09 08:55:51;;;;;;;11.77;4.72;;;28.40;86.60;;;;;;5093248;28;20384;-69
2023/06/09 08:58:55;;;;;;;16.45;5.22;;;28.50;85.10;;;;;;5093518;28;20403;-70
2023/06/09 09:02:01;;;;;;;11.07;5.07;;;28.70;85.30;;;;;;5081417;28;20055;-69
2023/06/09 09:05:05;;;;;;;16.30;4.90;;;28.90;85.30;;;;;;5081529;28;20499;-69
2023/06/09 09:08:10;;;;;;;11.18;4.68;;;29.10;84.70;;;;;;5093550;28;20055;-68
2023/06/09 09:11:14;;;;;;;12.02;4.85;;;28.90;84.80;;;;;;5093504;28;20047;-68
2023/06/09 09:14:19;;;;;;;13.57;4.85;;;28.80;86.70;;;;;;5093414;28;20106;-70
2023/06/09 09:17:23;;;;;;;12.07;4.88;;;28.50;88.50;;;;;;5081217;28;20047;-69
2023/06/09 09:20:34;;;;;;;11.43;5.10;;;28.40;89.40;;;;;;5093115;28;20039;-69
2023/06/09 09:23:39;;;;;;;13.80;4.50;;;28.50;89.70;;;;;;5093510;28;20247;-69
2023/06/09 09:26:43;;;;;;;10.88;5.18;;;28.70;89.70;;;;;;5093432;28;20043;-70
2023/06/09 09:29:47;;;;;;;24.20;7.90;;;28.90;89.10;;;;;;5092838;28;20047;-70
2023/06/09 09:32:53;;;;;;;22.88;5.60;;;29.00;87.80;;;;;;5092913;28;20063;-69
2023/06/09 09:35:59;;;;;;;13.60;6.07;;;29.10;88.30;;;;;;5079808;28;20035;-69
2023/06/09 09:39:05;;;;;;;11.70;5.90;;;29.10;87.90;;;;;;5080889;28;20063;-70
2023/06/09 09:42:10;;;;;;;22.05;7.18;;;29.10;87.10;;;;;;5093137;28;20039;-69
2023/06/09 09:45:26;;;;;;;10.35;4.55;;;29.10;87.70;;;;;;5093114;28;20114;-69
2023/06/09 09:48:30;;;;;;;12.65;5.28;;;29.10;87.80;;;;;;5093030;28;20043;-71
2023/06/09 09:51:35;;;;;;;9.55;5.00;;;29.10;87.60;;;;;;5092839;28;20047;-67
2023/06/09 09:54:39;;;;;;;21.17;5.15;;;29.20;87.50;;;;;;5092850;28;20408;-68
2023/06/09 09:57:45;;;;;;;12.65;5.13;;;29.30;87.80;;;;;;5092604;28;20498;-69
2023/06/09 10:00:50;;;;;;;14.57;6.07;;;29.30;87.60;;;;;;5080230;28;20047;-69
2023/06/09 10:03:55;;;;;;;9.50;5.35;;;29.40;87.10;;;;;;5092598;28;20440;-69
2023/06/09 10:07:01;;;;;;;12.55;5.45;;;29.40;87.70;;;;;;5092665;28;20039;-70
2023/06/09 10:10:09;;;;;;;11.65;5.63;;;29.50;87.60;;;;;;5080553;28;20055;-79
2023/06/09 10:13:15;;;;;;;11.38;5.60;;;29.60;87.00;;;;;;5092488;28;20051;-78
2023/06/09 10:16:22;;;;;;;12.95;5.40;;;29.60;86.70;;;;;;5092382;28;20047;-81
2023/06/09 10:19:27;;;;;;;10.40;5.15;;;29.60;86.90;;;;;;5092643;28;20051;-75
2023/06/09 10:22:31;;;;;;;16.58;6.18;;;29.60;86.40;;;;;;5092472;28;20599;-75
2023/06/09 10:25:36;;;;;;;12.30;5.28;;;29.50;87.10;;;;;;5079582;28;20051;-75
2023/06/09 10:28:40;;;;;;;14.50;5.63;;;29.60;87.20;;;;;;5092412;28;20522;-78
2023/06/09 10:31:46;;;;;;;10.85;5.38;;;29.70;86.80;;;;;;5092398;28;20087;-73
2023/06/09 10:34:52;;;;;;;12.48;5.47;;;29.70;86.90;;;;;;5092497;28;20403;-81
2023/06/09 10:37:58;;;;;;;11.38;5.80;;;29.70;86.90;;;;;;5092418;28;20066;-74
2023/06/09 10:41:08;;;;;;;15.32;5.28;;;29.70;87.00;;;;;;5092301;28;20039;-74
2023/06/09 10:44:39;;;;;;;15.00;5.63;;;29.80;87.20;;;;;;5092015;28;20043;-75
2023/06/09 10:47:44;;;;;;;15.18;5.50;;;29.70;87.00;;;;;;5091788;28;20047;-82
2023/06/09 10:50:48;;;;;;;17.58;5.93;;;29.70;87.70;;;;;;5092295;28;20070;-77
2023/06/09 10:54:11;;;;;;;14.40;5.07;;;29.70;87.00;;;;;;5091954;28;20059;-84
2023/06/09 10:57:36;;;;;;;13.05;4.90;;;29.60;86.80;;;;;;5079838;28;20067;-86
2023/06/09 11:01:09;;;;;;;14.52;6.07;;;29.60;87.70;;;;;;5091226;28;20047;-77
2023/06/09 11:04:44;;;;;;;10.15;5.95;;;29.60;87.80;;;;;;5090765;28;20051;-78
2023/06/09 11:07:50;;;;;;;15.52;6.00;;;29.50;87.10;;;;;;5091658;28;20508;-78
2023/06/09 11:10:54;;;;;;;10.23;5.70;;;29.40;87.60;;;;;;5091078;28;20043;-75
2023/06/09 11:13:58;;;;;;;10.85;5.10;;;29.40;88.00;;;;;;5091602;28;20043;-77
2023/06/09 11:17:22;;;;;;;23.10;6.15;;;29.40;88.20;;;;;;5091913;28;20070;-77
2023/06/09 11:20:26;;;;;;;11.85;5.22;;;29.30;88.00;;;;;;5091907;28;20043;-79
2023/06/09 11:23:32;;;;;;;9.90;4.93;;;29.30;88.60;;;;;;5091525;28;20518;-82
2023/06/09 11:26:37;;;;;;;12.07;6.10;;;29.30;89.20;;;;;;5079159;28;20059;-82
2023/06/09 11:29:41;;;;;;;10.68;5.13;;;29.20;88.70;;;;;;5091592;28;20046;-79
2023/06/09 11:32:50;;;;;;;13.25;5.50;;;29.20;89.00;;;;;;5078594;28;20057;-79
2023/06/09 11:35:54;;;;;;;12.32;5.32;;;29.20;88.40;;;;;;5091426;28;20047;-79
2023/06/09 11:39:01;;;;;;;11.65;5.38;;;29.20;88.30;;;;;;5091291;28;20039;-75
2023/06/09 11:42:05;;;;;;;9.65;4.90;;;29.20;88.20;;;;;;5091034;28;20039;-79
2023/06/09 11:45:11;;;;;;;9.45;5.20;;;29.20;88.30;;;;;;5091206;28;20512;-76
2023/06/09 11:48:15;;;;;;;10.13;5.10;;;29.10;88.50;;;;;;5091421;28;20032;-76
2023/06/09 11:51:20;;;;;;;12.27;5.63;;;29.10;88.50;;;;;;5090977;28;20044;-77
2023/06/09 11:54:43;;;;;;;6.55;4.50;;;29.10;88.50;;;;;;5078423;28;20419;-78
2023/06/09 11:57:47;;;;;;;15.73;6.53;;;29.10;88.80;;;;;;5090974;28;20522;-77
2023/06/09 12:00:51;;;;;;;8.93;5.15;;;29.20;88.80;;;;;;5093931;28;20070;-75
2023/06/09 12:03:55;;;;;;;16.25;6.15;;;29.90;87.10;;;;;;5095633;28;20051;-77
2023/06/09 12:06:59;;;;;;;12.52;4.95;;;30.70;86.10;;;;;;5082357;28;20051;-76
2023/06/09 12:10:04;;;;;;;12.93;4.72;;;31.10;84.60;;;;;;5095080;28;20051;-75
2023/06/09 12:13:08;;;;;;;18.42;5.47;;;31.10;84.20;;;;;;5082424;28;20407;-76
2023/06/09 12:16:12;;;;;;;9.73;5.30;;;31.20;84.00;;;;;;5094952;28;20387;-75
2023/06/09 12:19:18;;;;;;;13.32;4.47;;;31.30;84.00;;;;;;5094938;28;20043;-74
2023/06/09 12:22:22;;;;;;;15.88;5.18;;;31.40;83.60;;;;;;5094910;28;20063;-75
2023/06/09 12:25:30;;;;;;;10.77;4.75;;;31.30;83.60;;;;;;5095678;28;20067;-82
2023/06/09 12:28:34;;;;;;;13.65;4.60;;;31.40;83.80;;;;;;5093279;28;20039;-76
2023/06/09 12:31:46;;;;;;;14.82;4.60;;;30.80;85.10;;;;;;5094535;28;20039;-77
2023/06/09 12:34:57;;;;;;;31.52;6.85;;;30.40;84.90;;;;;;5094288;28;20043;-76
2023/06/09 12:38:09;;;;;;;7.90;4.10;;;30.10;85.90;;;;;;5094527;28;20051;-77
2023/06/09 12:41:17;;;;;;;8.27;4.25;;;29.90;86.70;;;;;;5094458;28;20051;-74
2023/06/09 12:44:23;;;;;;;7.65;4.15;;;29.80;86.40;;;;;;5094436;28;20050;-75
2023/06/09 12:47:27;;;;;;;8.25;3.78;;;29.60;86.10;;;;;;5094332;28;20183;-76
2023/06/09 12:50:30;;;;;;;10.65;4.88;;;29.50;86.70;;;;;;5094076;28;20047;-77
2023/06/09 12:53:34;;;;;;;9.32;4.82;;;29.40;86.50;;;;;;5081683;28;20074;-78
2023/06/09 12:56:39;;;;;;;11.38;4.35;;;29.30;86.30;;;;;;5081882;28;20051;-76
2023/06/09 12:59:43;;;;;;;7.68;4.00;;;29.30;87.30;;;;;;5094232;28;20297;-76
2023/06/09 13:02:47;;;;;;;10.52;4.60;;;29.20;86.60;;;;;;5093954;28;20063;-77
2023/06/09 13:05:51;;;;;;;15.75;4.30;;;29.30;87.00;;;;;;5094012;28;20051;-76
2023/06/09 13:08:55;;;;;;;8.23;3.70;;;29.30;86.90;;;;;;5093392;28;20055;-76
2023/06/09 13:12:00;;;;;;;12.90;4.03;;;29.30;86.30;;;;;;5093299;28;20591;-77
2023/06/09 13:15:04;;;;;;;9.13;3.83;;;29.30;85.60;;;;;;5093886;28;20051;-77
2023/06/09 13:18:14;;;;;;;11.43;3.92;;;29.30;85.40;;;;;;5093745;28;20042;-77
2023/06/09 13:21:18;;;;;;;10.68;3.83;;;29.20;85.80;;;;;;5093882;28;20043;-76
2023/06/09 13:24:21;;;;;;;6.35;3.47;;;29.20;85.50;;;;;;5081281;28;20039;-78
2023/06/09 13:27:25;;;;;;;11.57;4.82;;;29.20;85.80;;;;;;5093705;28;20495;-77
2023/06/09 13:30:30;;;;;;;7.82;4.07;;;29.30;85.30;;;;;;5093162;28;20043;-77
2023/06/09 13:33:34;;;;;;;11.68;4.18;;;29.20;85.30;;;;;;5093169;28;20059;-77
2023/06/09 13:36:38;;;;;;;8.57;3.85;;;29.20;85.20;;;;;;5080714;28;20487;-76
2023/06/09 13:39:42;;;;;;;12.18;3.80;;;29.20;85.90;;;;;;5093055;28;20071;-76
2023/06/09 13:42:52;;;;;;;10.55;4.50;;;29.20;85.20;;;;;;5093274;28;20039;-76
2023/06/09 13:45:56;;;;;;;8.23;3.67;;;29.20;84.30;;;;;;5093159;28;20047;-75
2023/06/09 13:49:03;;;;;;;8.73;4.05;;;29.20;84.60;;;;;;5093044;28;20203;-77
2023/06/09 13:52:07;;;;;;;12.13;4.20;;;29.20;85.00;;;;;;5093169;28;20047;-77
2023/06/09 13:55:11;;;;;;;9.48;3.70;;;29.20;84.80;;;;;;5093167;28;20059;-76
2023/06/09 13:58:15;;;;;;;12.80;3.83;;;29.20;84.40;;;;;;5092950;28;20518;-77
2023/06/09 14:01:20;;;;;;;9.00;3.47;;;29.10;83.10;;;;;;5093027;28;20067;-75
2023/06/09 14:04:24;;;;;;;7.10;3.30;;;29.10;83.50;;;;;;5080338;28;20051;-76
2023/06/09 14:07:28;;;;;;;6.47;4.20;;;29.10;83.50;;;;;;5092781;28;20055;-75
2023/06/09 14:10:32;;;;;;;7.00;3.70;;;29.10;83.50;;;;;;5091108;28;20051;-86
2023/06/09 14:13:36;;;;;;;12.32;3.85;;;29.10;83.60;;;;;;5092353;28;20387;-79
2023/06/09 14:16:41;;;;;;;4.60;3.42;;;29.00;83.70;;;;;;5079552;28;20364;-80
2023/06/09 14:19:45;;;;;;;8.57;3.50;;;29.00;83.60;;;;;;5092352;28;20051;-79
2023/06/09 14:22:50;;;;;;;9.45;3.70;;;29.10;83.60;;;;;;5091157;28;20039;-71
2023/06/09 14:25:54;;;;;;;5.63;3.47;;;29.10;82.60;;;;;;5083003;28;20051;-87
2023/06/09 14:28:58;;;;;;;8.35;3.90;;;29.10;82.70;;;;;;5093296;28;20495;-88
2023/06/09 14:32:03;;;;;;;11.32;3.67;;;29.10;83.20;;;;;;5080145;28;20046;-89
2023/06/09 14:35:08;;;;;;;9.68;3.67;;;29.10;83.40;;;;;;5093211;28;20051;-85
2023/06/09 14:38:11;;;;;;;13.13;4.45;;;29.00;83.30;;;;;;5093870;28;20244;-85
2023/06/09 14:41:15;;;;;;;8.38;3.50;;;29.00;82.60;;;;;;5092983;28;20050;-81
2023/06/09 14:44:20;;;;;;;5.60;2.88;;;28.90;82.60;;;;;;5092160;28;20093;-77
2023/06/09 14:47:24;;;;;;;9.60;3.70;;;28.90;83.20;;;;;;5079609;28;20070;-72
2023/06/09 14:50:32;;;;;;;12.05;3.85;;;28.80;83.00;;;;;;5091889;28;20054;-69
2023/06/09 14:53:36;;;;;;;13.45;4.70;;;28.80;83.50;;;;;;5091691;28;20054;-73
2023/06/09 14:56:40;;;;;;;14.40;4.00;;;29.20;83.10;;;;;;5091837;28;20142;-71
2023/06/09 14:59:44;;;;;;;12.25;5.22;;;30.20;80.70;;;;;;5079176;28;20047;-69
2023/06/09 15:02:50;;;;;;;12.85;3.20;;;31.20;79.90;;;;;;5091575;28;20051;-72
2023/06/09 15:05:54;;;;;;;13.50;4.20;;;31.70;77.70;;;;;;5091807;28;20404;-70
2023/06/09 15:08:58;;;;;;;13.77;3.80;;;31.70;78.00;;;;;;5052834;28;20531;-73
2023/06/09 15:12:03;;;;;;;12.13;3.63;;;32.00;77.50;;;;;;5051184;28;20063;-72
2023/06/09 15:15:07;;;;;;;21.60;4.53;;;32.20;76.90;;;;;;5051147;28;20048;-72
2023/06/09 15:18:11;;;;;;;15.90;3.97;;;32.30;76.70;;;;;;5050498;28;20047;-77
2023/06/09 15:21:15;;;;;;;18.00;3.58;;;32.00;77.90;;;;;;5050436;28;20049;-71
2023/06/09 15:24:19;;;;;;;8.43;4.18;;;31.80;78.00;;;;;;5051174;28;20051;-72
2023/06/09 15:27:23;;;;;;;9.35;3.88;;;31.20;79.30;;;;;;5051282;28;20435;-76
2023/06/09 15:30:35;;;;;;;14.98;4.30;;;30.60;81.60;;;;;;5051459;28;20051;-76
2023/06/09 15:33:38;;;;;;;10.40;3.83;;;30.10;82.40;;;;;;5050643;28;20155;-74
2023/06/09 15:36:42;;;;;;;11.25;4.50;;;29.60;83.40;;;;;;5050211;28;20096;-75
2023/06/09 15:39:46;;;;;;;18.48;3.92;;;29.40;84.90;;;;;;5050905;28;20055;-78
2023/06/09 15:42:50;;;;;;;13.13;3.88;;;29.20;85.30;;;;;;5050765;28;20056;-74
2023/06/09 15:45:55;;;;;;;7.35;3.40;;;29.00;85.70;;;;;;5050061;28;20047;-74
2023/06/09 15:48:59;;;;;;;9.80;3.47;;;28.90;85.90;;;;;;5050784;28;20052;-75
2023/06/09 15:52:03;;;;;;;11.82;3.35;;;28.80;87.40;;;;;;5050453;28;20068;-71
2023/06/09 15:55:08;;;;;;;14.82;4.13;;;28.70;87.20;;;;;;5050764;28;20048;-71